Time;durP1;ratioP1;P1;durP2;ratioP2;P2;SDS_P1;SDS_P2;PMS_P1;PMS_P2;Temp;Humidity;BMP_temperature;BMP_pressure;BME280_temperature;BME280_humidity;BME280_pressure;Samples;Min_cycle;Max_cycle;Signal;HPM_P1;HPM_P2
2023/07/09 00:01:53;;;;;;;2.60;1.65;;;26.80;46.00;;;;;;4971207;28;20072;-68
2023/07/09 00:04:19;;;;;;;3.58;1.70;;;26.80;46.00;;;;;;4979027;28;20031;-68
2023/07/09 00:06:45;;;;;;;3.88;1.80;;;26.80;46.00;;;;;;4980673;28;20479;-68
2023/07/09 00:09:17;;;;;;;3.78;1.60;;;26.80;46.00;;;;;;4977268;28;20034;-68
2023/07/09 00:11:43;;;;;;;3.20;1.63;;;26.80;46.00;;;;;;4980309;28;20097;-68
2023/07/09 00:14:14;;;;;;;3.00;1.75;;;26.80;46.00;;;;;;4979732;28;20026;-69
2023/07/09 00:16:41;;;;;;;3.60;1.80;;;26.80;46.00;;;;;;4978185;28;20042;-68
2023/07/09 00:19:13;;;;;;;2.78;1.70;;;26.80;46.00;;;;;;4978839;28;20035;-68
2023/07/09 00:21:40;;;;;;;3.30;1.73;;;26.80;46.00;;;;;;4982544;28;20320;-69
2023/07/09 00:24:07;;;;;;;3.28;1.60;;;26.80;46.00;;;;;;4976222;28;20046;-69
2023/07/09 00:26:32;;;;;;;3.25;1.85;;;26.80;46.00;;;;;;4967353;28;20031;-68
2023/07/09 00:28:59;;;;;;;3.40;1.63;;;26.80;46.00;;;;;;4977315;28;20465;-68
2023/07/09 00:31:25;;;;;;;3.35;1.83;;;26.80;46.00;;;;;;4966384;28;20410;-68
2023/07/09 00:33:52;;;;;;;3.35;1.75;;;26.80;46.00;;;;;;4979062;28;20033;-68
2023/07/09 00:36:28;;;;;;;2.60;1.70;;;26.80;46.00;;;;;;4978748;28;20069;-68
2023/07/09 00:38:54;;;;;;;3.85;1.67;;;26.80;46.00;;;;;;4976520;28;20030;-68
2023/07/09 00:41:22;;;;;;;4.35;1.70;;;26.80;46.00;;;;;;4963074;28;20044;-68
2023/07/09 00:43:50;;;;;;;2.45;1.40;;;26.80;46.00;;;;;;4979915;28;20026;-68
2023/07/09 00:46:35;;;;;;;4.45;1.63;;;26.80;46.00;;;;;;4977627;28;20038;-68
2023/07/09 00:49:08;;;;;;;2.40;1.38;;;26.80;46.00;;;;;;4978118;28;20037;-69
2023/07/09 00:51:41;;;;;;;2.47;1.60;;;26.80;46.00;;;;;;4961879;28;20478;-68
2023/07/09 00:54:27;;;;;;;2.78;1.70;;;26.80;46.00;;;;;;4978402;28;20105;-69
2023/07/09 00:56:53;;;;;;;2.50;1.60;;;26.80;46.00;;;;;;4977216;28;20031;-68
2023/07/09 00:59:23;;;;;;;2.92;1.58;;;26.80;46.00;;;;;;4979665;28;20149;-69
2023/07/09 01:01:50;;;;;;;2.70;1.70;;;26.80;46.00;;;;;;4963698;28;20034;-68
2023/07/09 01:04:21;;;;;;;3.67;1.92;;;26.80;46.00;;;;;;4978226;28;20030;-69
2023/07/09 01:06:54;;;;;;;3.28;1.70;;;26.80;46.50;;;;;;4979899;28;20101;-68
2023/07/09 01:09:22;;;;;;;2.80;1.58;;;26.80;46.00;;;;;;4976791;28;20110;-68
2023/07/09 01:11:47;;;;;;;2.78;1.50;;;26.80;46.00;;;;;;4978436;28;20447;-68
2023/07/09 01:14:17;;;;;;;2.47;1.50;;;26.80;46.00;;;;;;4979371;28;20065;-68
2023/07/09 01:16:46;;;;;;;2.72;1.40;;;26.80;46.00;;;;;;4977645;28;20110;-68
2023/07/09 01:19:13;;;;;;;3.25;1.80;;;26.80;46.00;;;;;;4980365;28;20026;-68
2023/07/09 01:21:40;;;;;;;2.03;1.30;;;26.80;46.00;;;;;;4978541;28;20023;-68
2023/07/09 01:24:35;;;;;;;2.28;1.40;;;26.80;46.00;;;;;;4976406;28;20030;-68
2023/07/09 01:27:02;;;;;;;2.90;1.60;;;26.80;46.00;;;;;;4977784;28;20042;-69
2023/07/09 01:29:34;;;;;;;3.20;1.52;;;26.80;46.00;;;;;;4976968;28;20474;-68
2023/07/09 01:31:59;;;;;;;2.70;1.50;;;26.80;46.00;;;;;;4967555;28;20038;-68
2023/07/09 01:34:25;;;;;;;2.72;1.60;;;26.80;46.00;;;;;;4978281;28;20033;-69
2023/07/09 01:36:51;;;;;;;2.83;1.40;;;26.80;46.00;;;;;;4978671;28;20026;-68
2023/07/09 01:39:18;;;;;;;2.22;1.42;;;26.80;46.00;;;;;;4977295;28;20042;-69
2023/07/09 01:41:46;;;;;;;3.63;1.75;;;26.80;46.00;;;;;;4979479;28;20517;-68
2023/07/09 01:44:12;;;;;;;3.55;1.50;;;26.70;45.90;;;;;;4969070;28;20034;-69
2023/07/09 01:46:38;;;;;;;2.30;1.45;;;26.80;45.90;;;;;;4979116;28;20027;-68
2023/07/09 01:49:07;;;;;;;2.55;1.60;;;26.70;45.90;;;;;;4978024;28;20041;-69
2023/07/09 01:51:33;;;;;;;2.35;1.38;;;26.70;45.90;;;;;;4960154;28;20045;-68
2023/07/09 01:53:59;;;;;;;2.80;1.70;;;26.70;45.90;;;;;;4978143;28;20526;-68
2023/07/09 01:56:25;;;;;;;3.45;1.48;;;26.70;45.90;;;;;;4979206;28;20025;-68
2023/07/09 01:58:51;;;;;;;2.80;1.60;;;26.70;45.90;;;;;;4982965;28;20023;-69
2023/07/09 02:01:19;;;;;;;4.15;1.60;;;26.70;45.90;;;;;;4983504;28;20035;-68
2023/07/09 02:03:45;;;;;;;3.22;1.90;;;26.70;45.90;;;;;;4983478;28;20058;-68
2023/07/09 02:06:12;;;;;;;2.95;1.73;;;26.70;45.80;;;;;;4970705;28;20462;-69
2023/07/09 02:08:38;;;;;;;3.38;1.50;;;26.70;45.90;;;;;;4981141;28;20030;-69
2023/07/09 02:11:04;;;;;;;2.65;1.50;;;26.70;45.90;;;;;;4981284;28;20062;-68
2023/07/09 02:13:29;;;;;;;2.95;1.52;;;26.70;45.90;;;;;;4981702;28;20568;-68
2023/07/09 02:15:55;;;;;;;2.65;1.63;;;26.70;45.90;;;;;;4981574;28;20031;-69
2023/07/09 02:18:21;;;;;;;2.28;1.50;;;26.70;45.90;;;;;;4972801;28;20038;-69
2023/07/09 02:20:46;;;;;;;2.33;1.42;;;26.70;45.80;;;;;;4963409;28;20037;-69
2023/07/09 02:23:12;;;;;;;2.65;1.60;;;26.70;45.80;;;;;;4980317;28;20030;-69
2023/07/09 02:25:38;;;;;;;2.38;1.40;;;26.70;45.80;;;;;;4980122;28;20027;-68
2023/07/09 02:28:03;;;;;;;3.00;1.70;;;26.70;45.80;;;;;;4982682;28;20049;-68
2023/07/09 02:30:30;;;;;;;2.58;1.55;;;26.70;45.80;;;;;;4981870;28;20101;-69
2023/07/09 02:32:55;;;;;;;2.15;1.45;;;26.70;45.80;;;;;;4966116;28;20030;-68
2023/07/09 02:35:22;;;;;;;2.53;1.60;;;26.70;45.80;;;;;;4981788;28;20026;-70
2023/07/09 02:37:48;;;;;;;2.67;1.40;;;26.70;46.40;;;;;;4967018;28;20494;-69
2023/07/09 02:40:14;;;;;;;2.85;1.40;;;26.70;45.80;;;;;;4980406;28;20031;-68
2023/07/09 02:42:40;;;;;;;2.70;1.50;;;26.70;45.80;;;;;;4961611;28;20030;-69
2023/07/09 02:45:06;;;;;;;2.20;1.40;;;26.70;45.80;;;;;;4973236;28;20499;-69
2023/07/09 02:47:32;;;;;;;3.00;1.50;;;26.70;45.80;;;;;;4980917;28;20557;-69
2023/07/09 02:49:58;;;;;;;3.35;1.58;;;26.70;45.80;;;;;;4981386;28;20022;-69
2023/07/09 02:52:23;;;;;;;1.98;1.40;;;26.70;45.80;;;;;;4980945;28;20434;-68
2023/07/09 02:54:49;;;;;;;2.88;1.60;;;26.70;46.00;;;;;;4979126;28;20336;-68
2023/07/09 02:57:15;;;;;;;2.13;1.30;;;26.70;46.40;;;;;;4979157;28;20050;-68
2023/07/09 02:59:40;;;;;;;2.22;1.35;;;26.60;45.80;;;;;;4982189;28;20510;-69
2023/07/09 03:02:06;;;;;;;2.45;1.30;;;26.70;45.80;;;;;;4982972;28;20379;-69
2023/07/09 03:04:32;;;;;;;2.10;1.30;;;26.70;45.80;;;;;;4980255;28;20359;-69
2023/07/09 03:06:59;;;;;;;2.85;1.55;;;26.70;45.80;;;;;;4961873;28;20027;-69
2023/07/09 03:09:25;;;;;;;2.30;1.50;;;26.70;45.80;;;;;;4979036;28;20027;-68
2023/07/09 03:11:50;;;;;;;2.75;1.48;;;26.60;45.80;;;;;;4981062;28;20034;-69
2023/07/09 03:14:16;;;;;;;2.33;1.40;;;26.70;45.80;;;;;;4980841;28;20030;-69
2023/07/09 03:16:42;;;;;;;2.17;1.35;;;26.70;45.80;;;;;;4963417;28;20038;-69
2023/07/09 03:19:08;;;;;;;2.50;1.50;;;26.70;45.80;;;;;;4979747;28;20506;-68
2023/07/09 03:21:34;;;;;;;2.22;1.40;;;26.70;46.20;;;;;;4980678;28;20045;-69
2023/07/09 03:23:59;;;;;;;2.47;1.50;;;26.70;45.80;;;;;;4969921;28;20502;-69
2023/07/09 03:26:25;;;;;;;2.55;1.40;;;26.70;45.80;;;;;;4979883;28;20141;-69
2023/07/09 03:28:52;;;;;;;1.90;1.45;;;26.60;45.70;;;;;;4978893;28;20510;-69
2023/07/09 03:31:17;;;;;;;2.10;1.30;;;26.60;45.70;;;;;;4979729;28;20348;-69
2023/07/09 03:33:43;;;;;;;2.80;1.70;;;26.60;45.70;;;;;;4978422;28;20046;-68
2023/07/09 03:36:09;;;;;;;2.08;1.30;;;26.60;45.70;;;;;;4978855;28;20033;-69
2023/07/09 03:38:34;;;;;;;1.90;1.42;;;26.70;45.80;;;;;;4978336;28;20440;-69
2023/07/09 03:41:00;;;;;;;2.20;1.40;;;26.60;45.70;;;;;;4978853;28;20039;-69
2023/07/09 03:43:26;;;;;;;1.88;1.15;;;26.60;45.70;;;;;;4979515;28;20106;-70
2023/07/09 03:45:51;;;;;;;1.88;1.20;;;26.70;45.80;;;;;;4964281;28;20018;-68
2023/07/09 03:48:19;;;;;;;2.15;1.33;;;26.60;45.70;;;;;;4978282;28;20031;-69
2023/07/09 03:50:46;;;;;;;2.17;1.33;;;26.60;45.70;;;;;;4978516;28;20111;-69
2023/07/09 03:53:12;;;;;;;2.35;1.33;;;26.60;45.70;;;;;;4979244;28;20031;-70
2023/07/09 03:55:38;;;;;;;2.00;1.40;;;26.60;45.70;;;;;;4968980;28;20033;-68
2023/07/09 03:58:04;;;;;;;1.92;1.30;;;26.60;45.70;;;;;;4977936;28;20058;-69
2023/07/09 04:00:30;;;;;;;2.17;1.40;;;26.60;45.70;;;;;;4981339;28;20140;-69
2023/07/09 04:02:56;;;;;;;2.17;1.40;;;26.60;45.70;;;;;;4978147;28;20395;-69
2023/07/09 04:05:25;;;;;;;2.80;1.60;;;26.60;45.70;;;;;;4978290;28;20018;-69
2023/07/09 04:07:51;;;;;;;2.53;1.40;;;26.60;45.70;;;;;;4979416;28;20467;-69
2023/07/09 04:10:17;;;;;;;2.20;1.40;;;26.60;45.70;;;;;;4978143;28;20037;-69
2023/07/09 04:12:43;;;;;;;1.95;1.35;;;26.60;45.70;;;;;;4980692;28;20033;-68
2023/07/09 04:15:12;;;;;;;3.15;1.45;;;26.60;45.70;;;;;;4966048;28;20023;-69
2023/07/09 04:17:38;;;;;;;2.42;1.25;;;26.60;45.70;;;;;;4978826;28;20114;-69
2023/07/09 04:20:07;;;;;;;1.80;1.30;;;26.60;46.20;;;;;;4978815;28;20121;-68
2023/07/09 04:22:34;;;;;;;2.20;1.42;;;26.60;45.70;;;;;;4963618;28;20466;-69
2023/07/09 04:24:59;;;;;;;1.92;1.33;;;26.60;45.70;;;;;;4964637;28;20041;-69
2023/07/09 04:27:27;;;;;;;2.00;1.50;;;26.60;45.70;;;;;;4970063;28;20035;-69
2023/07/09 04:29:53;;;;;;;2.13;1.30;;;26.60;45.70;;;;;;4970836;28;20034;-69
2023/07/09 04:32:19;;;;;;;1.70;1.17;;;26.60;45.70;;;;;;4979671;28;20027;-68
2023/07/09 04:34:45;;;;;;;2.00;1.30;;;26.60;45.70;;;;;;4980155;28;20546;-69
2023/07/09 04:37:11;;;;;;;2.45;1.60;;;26.60;45.70;;;;;;4978966;28;20411;-69
2023/07/09 04:39:38;;;;;;;1.95;1.40;;;26.60;45.70;;;;;;4981033;28;20386;-68
2023/07/09 04:42:05;;;;;;;2.13;1.40;;;26.60;45.70;;;;;;4978576;28;20030;-69
2023/07/09 04:44:31;;;;;;;1.75;1.30;;;26.60;45.70;;;;;;4978159;28;20038;-69
2023/07/09 04:46:56;;;;;;;1.55;1.17;;;26.60;45.70;;;;;;4980649;28;20023;-68
2023/07/09 04:49:22;;;;;;;1.67;1.17;;;26.60;45.70;;;;;;4976742;28;20498;-69
2023/07/09 04:51:48;;;;;;;1.85;1.10;;;26.60;45.70;;;;;;4977392;28;20026;-69
2023/07/09 04:54:14;;;;;;;1.88;1.30;;;26.50;45.60;;;;;;4978332;28;20709;-69
2023/07/09 04:56:44;;;;;;;1.73;1.23;;;26.60;45.70;;;;;;4976043;28;20471;-69
2023/07/09 04:59:11;;;;;;;1.98;1.25;;;26.50;45.60;;;;;;4979882;28;20054;-69
2023/07/09 05:01:37;;;;;;;1.85;1.20;;;26.50;45.60;;;;;;4979276;28;20034;-69
2023/07/09 05:04:03;;;;;;;1.95;1.30;;;26.50;45.60;;;;;;4978930;28;20433;-69
2023/07/09 05:06:28;;;;;;;1.83;1.30;;;26.50;45.60;;;;;;4976748;28;20105;-68
2023/07/09 05:08:54;;;;;;;2.75;1.60;;;26.50;45.60;;;;;;4970191;28;20061;-68
2023/07/09 05:11:20;;;;;;;2.53;1.30;;;26.50;45.60;;;;;;4979016;28;20039;-69
2023/07/09 05:13:45;;;;;;;2.50;1.30;;;26.50;45.60;;;;;;4978293;28;20035;-69
2023/07/09 05:16:11;;;;;;;1.90;1.35;;;26.50;45.60;;;;;;4976454;28;20391;-69
2023/07/09 05:18:37;;;;;;;2.53;1.27;;;26.50;45.60;;;;;;4978956;28;20204;-70
2023/07/09 05:21:02;;;;;;;1.80;1.27;;;26.50;45.60;;;;;;4977929;28;20117;-69
2023/07/09 05:23:28;;;;;;;1.95;1.40;;;26.50;45.60;;;;;;4979328;28;20038;-69
2023/07/09 05:26:01;;;;;;;2.20;1.33;;;26.50;45.60;;;;;;4961773;28;20096;-68
2023/07/09 05:28:28;;;;;;;1.95;1.30;;;26.50;45.60;;;;;;4981123;28;20386;-69
2023/07/09 05:30:54;;;;;;;1.63;1.15;;;26.50;45.60;;;;;;4979827;28;20546;-68
2023/07/09 05:33:20;;;;;;;1.80;1.20;;;26.50;45.70;;;;;;4983995;28;20043;-69
2023/07/09 05:35:46;;;;;;;2.15;1.50;;;26.50;45.60;;;;;;4982404;28;20023;-69
2023/07/09 05:38:13;;;;;;;2.03;1.35;;;26.50;45.60;;;;;;4982493;28;20030;-69
2023/07/09 05:40:39;;;;;;;2.20;1.25;;;26.50;45.70;;;;;;4981097;28;20030;-68
2023/07/09 05:43:04;;;;;;;1.85;1.20;;;26.50;45.60;;;;;;4982872;28;20038;-69
2023/07/09 05:45:31;;;;;;;1.50;1.27;;;26.50;45.60;;;;;;4982495;28;20117;-68
2023/07/09 05:47:58;;;;;;;1.80;1.30;;;26.50;45.70;;;;;;4972842;28;20052;-68
2023/07/09 05:50:24;;;;;;;2.13;1.33;;;26.50;45.70;;;;;;4981693;28;20070;-68
2023/07/09 05:52:49;;;;;;;2.65;1.30;;;26.50;45.70;;;;;;4982570;28;20054;-68
2023/07/09 05:55:15;;;;;;;1.98;1.40;;;26.50;45.70;;;;;;4981652;28;20134;-68
2023/07/09 05:57:41;;;;;;;1.70;1.23;;;26.50;45.70;;;;;;4980125;28;20118;-69
2023/07/09 06:00:10;;;;;;;2.20;1.42;;;26.50;45.70;;;;;;4981306;28;20038;-68
2023/07/09 06:02:35;;;;;;;;;;;26.50;45.70;;;;;;4984512;28;20038;-68
2023/07/09 06:05:01;;;;;;;1.85;1.30;;;26.50;45.70;;;;;;4979013;28;19910;-68
2023/07/09 06:07:27;;;;;;;1.85;1.38;;;26.50;45.70;;;;;;4981595;28;20027;-69
2023/07/09 06:09:53;;;;;;;2.63;1.30;;;26.40;45.60;;;;;;4981567;28;20429;-69
2023/07/09 06:12:19;;;;;;;2.00;1.40;;;26.40;45.60;;;;;;4980725;28;20332;-68
2023/07/09 06:14:45;;;;;;;2.20;1.45;;;26.40;45.60;;;;;;4982404;28;20530;-68
2023/07/09 06:17:11;;;;;;;3.72;1.30;;;26.40;45.70;;;;;;4982922;28;20381;-69
2023/07/09 06:19:37;;;;;;;1.80;1.20;;;26.40;45.70;;;;;;4981014;28;20043;-68
2023/07/09 06:22:03;;;;;;;1.83;1.30;;;26.40;45.70;;;;;;4979944;28;20110;-68
2023/07/09 06:24:29;;;;;;;2.22;1.70;;;26.40;45.70;;;;;;4983568;28;20403;-68
2023/07/09 06:26:54;;;;;;;2.40;1.50;;;26.40;45.70;;;;;;4980071;28;20026;-69
2023/07/09 06:29:20;;;;;;;2.08;1.35;;;26.40;45.70;;;;;;4970634;28;20041;-68
2023/07/09 06:31:45;;;;;;;2.20;1.40;;;26.40;45.70;;;;;;4981815;28;20038;-68
2023/07/09 06:34:11;;;;;;;2.22;1.58;;;26.40;45.70;;;;;;4981059;28;20026;-69
2023/07/09 06:36:38;;;;;;;2.17;1.50;;;26.40;45.70;;;;;;4977976;28;20051;-68
2023/07/09 06:39:03;;;;;;;1.90;1.33;;;26.40;45.70;;;;;;4965417;28;20085;-68
2023/07/09 06:41:32;;;;;;;1.75;1.20;;;26.40;45.70;;;;;;4978576;28;20058;-69
2023/07/09 06:43:58;;;;;;;1.83;1.27;;;26.40;45.80;;;;;;4979141;28;20023;-68
2023/07/09 06:46:23;;;;;;;1.73;1.23;;;26.40;45.80;;;;;;4980232;28;20272;-68
2023/07/09 06:48:49;;;;;;;1.63;1.20;;;26.40;45.80;;;;;;4980112;28;20029;-68
2023/07/09 06:51:14;;;;;;;2.00;1.30;;;26.40;45.80;;;;;;4980298;28;20034;-68
2023/07/09 06:53:42;;;;;;;1.90;1.25;;;26.40;45.80;;;;;;4965393;28;20423;-68
2023/07/09 06:56:08;;;;;;;2.58;1.45;;;26.40;45.80;;;;;;4978487;28;20023;-68
2023/07/09 06:58:36;;;;;;;2.13;1.30;;;26.40;45.80;;;;;;4978462;28;20038;-69
2023/07/09 07:01:04;;;;;;;2.20;1.63;;;26.40;45.90;;;;;;4980456;28;20105;-68
2023/07/09 07:03:32;;;;;;;1.92;1.35;;;26.40;45.90;;;;;;4980910;28;20121;-68
2023/07/09 07:05:57;;;;;;;2.40;1.50;;;26.40;45.90;;;;;;4980606;28;20026;-68
2023/07/09 07:08:25;;;;;;;2.08;1.40;;;26.40;45.90;;;;;;4980234;28;20041;-68
2023/07/09 07:11:02;;;;;;;2.33;1.60;;;26.40;45.90;;;;;;4976622;28;20034;-68
2023/07/09 07:13:29;;;;;;;2.53;1.45;;;26.40;45.90;;;;;;4981734;28;20026;-69
2023/07/09 07:15:55;;;;;;;1.98;1.40;;;26.40;45.90;;;;;;4981800;28;20076;-69
2023/07/09 07:18:23;;;;;;;2.58;1.38;;;26.40;46.00;;;;;;4980600;28;20443;-68
2023/07/09 07:20:49;;;;;;;2.22;1.50;;;26.40;46.00;;;;;;4969936;28;20129;-68
2023/07/09 07:23:14;;;;;;;2.40;1.33;;;26.40;46.00;;;;;;4982242;28;20517;-68
2023/07/09 07:25:41;;;;;;;2.05;1.50;;;26.40;46.00;;;;;;4981687;28;20471;-69
2023/07/09 07:28:07;;;;;;;1.75;1.30;;;26.40;46.00;;;;;;4978089;28;20466;-68
2023/07/09 07:30:33;;;;;;;3.13;1.40;;;26.40;46.00;;;;;;4978998;28;20030;-68
2023/07/09 07:32:58;;;;;;;1.77;1.20;;;26.40;46.00;;;;;;4979235;28;20125;-68
2023/07/09 07:35:24;;;;;;;1.95;1.38;;;26.40;46.00;;;;;;4980079;28;20459;-68
2023/07/09 07:37:50;;;;;;;2.28;1.50;;;26.40;46.00;;;;;;4980361;28;20929;-68
2023/07/09 07:40:15;;;;;;;2.00;1.40;;;26.40;46.00;;;;;;4978657;28;20433;-68
2023/07/09 07:42:41;;;;;;;1.80;1.38;;;26.40;46.00;;;;;;4978803;28;20027;-68
2023/07/09 07:45:08;;;;;;;2.65;1.40;;;26.40;46.00;;;;;;4971074;28;20109;-69
2023/07/09 07:47:34;;;;;;;2.20;1.35;;;26.40;46.00;;;;;;4966215;28;20030;-68
2023/07/09 07:49:59;;;;;;;1.90;1.27;;;26.40;46.00;;;;;;4979052;28;20023;-68
2023/07/09 07:52:25;;;;;;;2.22;1.42;;;26.40;46.00;;;;;;4963253;28;20019;-68
2023/07/09 07:54:52;;;;;;;2.05;1.42;;;26.40;46.10;;;;;;4980055;28;20049;-68
2023/07/09 07:57:18;;;;;;;2.35;1.52;;;26.40;46.10;;;;;;4963351;28;20064;-68
2023/07/09 07:59:46;;;;;;;2.08;1.55;;;26.40;46.10;;;;;;4979399;28;20467;-68
2023/07/09 08:02:13;;;;;;;2.10;1.50;;;26.40;46.10;;;;;;4983963;28;20133;-69
2023/07/09 08:04:40;;;;;;;2.28;1.30;;;26.40;46.20;;;;;;4981971;28;20031;-68
2023/07/09 08:07:09;;;;;;;1.70;1.25;;;26.40;46.10;;;;;;4976826;28;20128;-68
2023/07/09 08:09:35;;;;;;;2.00;1.35;;;26.40;46.10;;;;;;4976750;28;20344;-68
2023/07/09 08:12:08;;;;;;;2.00;1.40;;;26.40;46.10;;;;;;4976524;28;20031;-68
2023/07/09 08:14:34;;;;;;;2.20;1.40;;;26.40;46.10;;;;;;4967626;28;20601;-68
2023/07/09 08:17:00;;;;;;;1.92;1.30;;;26.40;46.10;;;;;;4978763;28;20026;-67
2023/07/09 08:19:26;;;;;;;2.15;1.30;;;26.40;46.10;;;;;;4980725;28;20023;-68
2023/07/09 08:21:51;;;;;;;2.05;1.42;;;26.40;46.10;;;;;;4981494;28;20347;-68
2023/07/09 08:24:17;;;;;;;1.85;1.30;;;26.40;46.10;;;;;;4979278;28;20030;-68
2023/07/09 08:26:42;;;;;;;1.95;1.38;;;26.40;46.10;;;;;;4978644;28;20478;-68
2023/07/09 08:29:08;;;;;;;1.90;1.40;;;26.40;46.10;;;;;;4977010;28;20037;-68
2023/07/09 08:31:33;;;;;;;2.30;1.60;;;26.40;46.10;;;;;;4978361;28;20068;-68
2023/07/09 08:33:59;;;;;;;1.92;1.30;;;26.40;46.10;;;;;;4978909;28;20053;-67
2023/07/09 08:36:25;;;;;;;2.83;1.52;;;26.40;46.10;;;;;;4979030;28;20050;-67
2023/07/09 08:38:50;;;;;;;1.80;1.35;;;26.40;46.00;;;;;;4981143;28;20035;-67
2023/07/09 08:41:37;;;;;;;2.60;1.70;;;26.40;46.00;;;;;;4977258;28;20026;-68
2023/07/09 08:44:35;;;;;;;2.03;1.35;;;26.40;46.10;;;;;;4980947;28;20423;-67
2023/07/09 08:47:29;;;;;;;1.92;1.25;;;26.40;46.00;;;;;;4961749;28;20030;-68
2023/07/09 08:50:02;;;;;;;1.55;1.20;;;26.40;46.00;;;;;;4979354;28;20512;-67
2023/07/09 08:52:35;;;;;;;1.90;1.30;;;26.40;46.00;;;;;;4979182;28;20014;-67
2023/07/09 08:55:16;;;;;;;1.70;1.30;;;26.40;46.00;;;;;;4977442;28;20050;-67
2023/07/09 08:58:05;;;;;;;1.70;1.25;;;26.40;46.00;;;;;;4978419;28;20061;-68
2023/07/09 09:00:33;;;;;;;2.00;1.30;;;26.40;46.00;;;;;;4981646;28;20101;-68
2023/07/09 09:03:14;;;;;;;2.17;1.42;;;26.40;46.00;;;;;;4977105;28;20329;-67
2023/07/09 09:05:43;;;;;;;1.70;1.20;;;26.40;45.90;;;;;;4980334;28;20076;-67
2023/07/09 09:08:32;;;;;;;2.60;1.25;;;26.40;45.90;;;;;;4980590;28;20038;-67
2023/07/09 09:11:15;;;;;;;1.75;1.20;;;26.30;45.90;;;;;;4978211;28;20479;-67
2023/07/09 09:13:42;;;;;;;2.28;1.30;;;26.40;46.00;;;;;;4976236;28;20531;-68
2023/07/09 09:16:36;;;;;;;2.03;1.27;;;26.40;46.40;;;;;;4979712;28;20400;-67
2023/07/09 09:19:05;;;;;;;1.70;1.27;;;26.40;45.90;;;;;;4975489;28;20474;-68
2023/07/09 09:21:36;;;;;;;2.15;1.40;;;26.40;46.00;;;;;;4978727;28;20035;-68
2023/07/09 09:24:29;;;;;;;2.10;1.33;;;26.40;45.90;;;;;;4981116;28;20041;-67
2023/07/09 09:26:58;;;;;;;2.13;1.30;;;26.40;46.00;;;;;;4975706;28;20035;-67
2023/07/09 09:29:25;;;;;;;1.80;1.25;;;26.40;45.90;;;;;;4977625;28;20034;-67
2023/07/09 09:31:55;;;;;;;2.13;1.40;;;26.40;46.00;;;;;;4977650;28;20121;-68
2023/07/09 09:34:26;;;;;;;1.88;1.30;;;26.40;45.90;;;;;;4980487;28;20026;-67
2023/07/09 09:36:51;;;;;;;2.38;1.40;;;26.40;46.00;;;;;;4978627;28;20471;-67
2023/07/09 09:39:18;;;;;;;2.00;1.30;;;26.40;46.00;;;;;;4979691;28;20050;-67
2023/07/09 09:41:45;;;;;;;1.80;1.33;;;26.30;45.90;;;;;;4961745;28;20408;-67
2023/07/09 09:44:25;;;;;;;2.15;1.50;;;26.30;45.90;;;;;;4976167;28;20438;-68
2023/07/09 09:46:51;;;;;;;1.88;1.30;;;26.40;46.00;;;;;;4977716;28;20628;-67
2023/07/09 09:49:17;;;;;;;2.35;1.40;;;26.30;45.90;;;;;;4978909;28;20035;-67
2023/07/09 09:51:46;;;;;;;1.90;1.30;;;26.30;45.90;;;;;;4978964;28;20026;-67
2023/07/09 09:54:20;;;;;;;2.25;1.50;;;26.40;46.00;;;;;;4978183;28;20031;-67
2023/07/09 09:56:49;;;;;;;2.20;1.20;;;26.30;45.90;;;;;;4978456;28;20022;-67
2023/07/09 09:59:27;;;;;;;2.10;1.40;;;26.40;46.00;;;;;;4976653;28;20027;-67
2023/07/09 10:01:58;;;;;;;2.70;1.20;;;26.40;46.00;;;;;;4961319;28;20133;-68
2023/07/09 10:04:24;;;;;;;1.90;1.30;;;26.40;46.00;;;;;;4977883;28;20146;-67
2023/07/09 10:06:54;;;;;;;1.60;1.10;;;26.40;46.00;;;;;;4977470;28;20062;-67
2023/07/09 10:09:32;;;;;;;1.55;1.13;;;26.40;46.00;;;;;;4979767;28;20060;-67
2023/07/09 10:12:14;;;;;;;1.70;1.20;;;26.40;46.00;;;;;;4978889;28;20336;-68
2023/07/09 10:15:06;;;;;;;1.70;1.25;;;26.40;46.50;;;;;;4975869;28;20061;-67
2023/07/09 10:17:45;;;;;;;1.77;1.10;;;26.40;46.00;;;;;;4943474;28;20039;-67
2023/07/09 10:20:29;;;;;;;1.70;1.17;;;26.40;46.00;;;;;;4967638;28;20034;-68
2023/07/09 10:23:02;;;;;;;2.05;1.45;;;26.40;46.00;;;;;;4982739;28;20042;-68
2023/07/09 10:25:58;;;;;;;2.40;1.40;;;26.40;46.50;;;;;;4981871;28;20066;-67
2023/07/09 10:28:43;;;;;;;2.80;1.52;;;26.40;46.00;;;;;;4981868;28;20113;-67
2023/07/09 10:31:23;;;;;;;1.90;1.30;;;26.40;46.00;;;;;;4964890;28;20145;-67
2023/07/09 10:34:17;;;;;;;2.05;1.30;;;26.40;46.00;;;;;;4982271;28;20161;-67
2023/07/09 10:36:54;;;;;;;1.88;1.25;;;26.40;46.00;;;;;;4952900;28;20066;-67
2023/07/09 10:39:26;;;;;;;2.10;1.20;;;26.40;46.00;;;;;;4982978;28;20084;-68
2023/07/09 10:41:59;;;;;;;1.50;1.20;;;26.40;46.00;;;;;;4966304;28;20096;-67
2023/07/09 10:44:29;;;;;;;1.50;1.10;;;26.40;46.00;;;;;;4978976;28;20030;-67
2023/07/09 10:46:59;;;;;;;1.75;1.10;;;26.40;46.00;;;;;;4970771;28;20034;-67
2023/07/09 10:49:37;;;;;;;1.50;1.10;;;26.40;46.00;;;;;;4981818;28;20088;-67
2023/07/09 10:52:10;;;;;;;1.70;1.35;;;26.40;46.00;;;;;;4979625;28;20089;-67
2023/07/09 10:55:00;;;;;;;1.42;1.20;;;26.40;46.00;;;;;;4981440;28;20034;-67
2023/07/09 10:57:38;;;;;;;1.52;1.10;;;26.50;46.00;;;;;;4981630;28;20328;-67
2023/07/09 11:00:06;;;;;;;1.63;1.10;;;26.40;46.00;;;;;;4978932;28;20058;-67
2023/07/09 11:02:35;;;;;;;1.65;1.00;;;26.50;46.00;;;;;;4963218;28;20475;-68
2023/07/09 11:05:07;;;;;;;1.42;1.13;;;26.50;46.00;;;;;;4979857;28;20121;-67
2023/07/09 11:07:56;;;;;;;1.75;1.10;;;26.50;46.00;;;;;;4977323;28;20090;-67
2023/07/09 11:10:25;;;;;;;1.33;1.02;;;26.50;46.00;;;;;;4960208;28;20113;-67
2023/07/09 11:13:24;;;;;;;1.50;1.10;;;26.50;46.00;;;;;;4979008;28;20031;-67
2023/07/09 11:15:53;;;;;;;;;;;26.50;46.10;;;;;;4959279;28;20049;-68
2023/07/09 11:18:25;;;;;;;1.30;1.00;;;26.50;46.10;;;;;;4960908;28;19928;-67
2023/07/09 11:21:00;;;;;;;1.45;1.05;;;26.50;46.00;;;;;;4982429;28;20439;-67
2023/07/09 11:23:26;;;;;;;1.70;1.10;;;26.50;46.10;;;;;;4979353;28;20117;-67
2023/07/09 11:26:12;;;;;;;1.55;1.15;;;26.50;46.10;;;;;;4980013;28;20792;-67
2023/07/09 11:28:40;;;;;;;1.73;1.20;;;26.50;46.10;;;;;;4979280;28;20501;-67
2023/07/09 11:31:22;;;;;;;1.55;1.25;;;26.50;46.10;;;;;;4980030;28;20073;-67
2023/07/09 11:34:00;;;;;;;1.77;1.20;;;26.60;46.30;;;;;;4980269;28;20042;-66
2023/07/09 11:36:30;;;;;;;1.98;1.30;;;26.60;46.30;;;;;;4979889;28;20018;-67
2023/07/09 11:38:55;;;;;;;1.63;1.30;;;26.60;46.40;;;;;;4977914;28;20495;-67
2023/07/09 11:41:40;;;;;;;1.63;1.20;;;26.60;46.40;;;;;;4965498;28;20138;-67
2023/07/09 11:44:15;;;;;;;1.95;1.30;;;26.60;46.50;;;;;;4976042;28;20399;-66
2023/07/09 11:46:53;;;;;;;1.67;1.20;;;26.60;46.50;;;;;;4962539;28;20030;-67
2023/07/09 11:49:24;;;;;;;2.05;1.20;;;26.60;46.60;;;;;;4978848;28;20589;-67
2023/07/09 11:51:54;;;;;;;1.73;1.25;;;26.60;46.60;;;;;;4979332;28;20030;-67
2023/07/09 11:54:20;;;;;;;2.35;1.50;;;26.60;46.60;;;;;;4979379;28;20422;-68
2023/07/09 11:57:01;;;;;;;1.83;1.10;;;26.60;46.60;;;;;;4979133;28;20018;-67
2023/07/09 11:59:27;;;;;;;1.48;1.13;;;26.60;46.70;;;;;;4979241;28;20077;-67
2023/07/09 12:01:55;;;;;;;1.63;1.25;;;26.70;46.80;;;;;;4980148;28;20037;-67
2023/07/09 12:04:26;;;;;;;1.95;1.35;;;26.70;46.80;;;;;;4981535;28;20152;-67
2023/07/09 12:06:56;;;;;;;1.73;1.17;;;26.70;46.80;;;;;;4979380;28;20407;-67
2023/07/09 12:09:22;;;;;;;1.95;1.20;;;26.70;46.80;;;;;;4976909;28;20031;-67
2023/07/09 12:11:49;;;;;;;1.88;1.20;;;26.70;46.80;;;;;;4979041;28;20116;-67
2023/07/09 12:14:18;;;;;;;1.63;1.23;;;26.70;46.90;;;;;;4976628;28;20030;-67
2023/07/09 12:16:50;;;;;;;1.55;1.20;;;26.70;46.90;;;;;;4977537;28;20030;-67
2023/07/09 12:19:21;;;;;;;1.67;1.27;;;26.70;46.90;;;;;;4969520;28;20041;-67
2023/07/09 12:21:51;;;;;;;1.85;1.20;;;26.70;47.00;;;;;;4979969;28;20410;-67
2023/07/09 12:24:20;;;;;;;1.80;1.10;;;26.70;47.00;;;;;;4979275;28;20031;-67
2023/07/09 12:27:00;;;;;;;2.22;1.20;;;26.80;47.10;;;;;;4975727;28;20031;-67
2023/07/09 12:29:28;;;;;;;1.98;1.25;;;26.80;47.20;;;;;;4974362;28;20038;-67
2023/07/09 12:31:57;;;;;;;1.90;1.25;;;26.80;47.10;;;;;;4978267;28;20585;-67
2023/07/09 12:34:23;;;;;;;1.70;1.23;;;26.80;47.10;;;;;;4978580;28;20034;-66
2023/07/09 12:36:51;;;;;;;1.92;1.13;;;26.80;47.10;;;;;;4977769;28;20807;-67
2023/07/09 12:39:26;;;;;;;1.45;1.17;;;26.80;47.10;;;;;;4977611;28;20054;-67
2023/07/09 12:41:56;;;;;;;1.77;1.20;;;26.80;47.10;;;;;;4977791;28;20038;-67
2023/07/09 12:44:24;;;;;;;2.63;1.40;;;26.80;47.10;;;;;;4976981;28;20199;-66
2023/07/09 12:46:52;;;;;;;1.85;1.20;;;26.80;47.10;;;;;;4978012;28;20098;-67
2023/07/09 12:49:24;;;;;;;1.83;1.10;;;26.80;47.10;;;;;;4978496;28;20027;-67
2023/07/09 12:51:49;;;;;;;1.55;1.10;;;26.80;47.10;;;;;;4978330;28;20363;-66
2023/07/09 12:54:21;;;;;;;1.65;1.20;;;26.90;47.20;;;;;;4960823;28;20031;-67
2023/07/09 12:56:47;;;;;;;1.42;1.10;;;26.90;47.20;;;;;;4979518;28;20518;-67
2023/07/09 12:59:18;;;;;;;2.40;1.60;;;26.90;47.20;;;;;;4977325;28;20125;-68